Terminal Aerodrome Forecast
Issued by NWS King Salmon, AK

Home | Current Version | Previous Version | Text Only | Print | Product List | Glossary On
Versions: 1 2 3 4 5 6 7 8 9 10 11 12 13 14 15 16 17 18 19 20 21 22 23 24
000
FTAK31 PANC 200540
TAFAKN
TAF
PAKN 200540Z 2006/2106 16008KT P6SM -SHSN SCT025 BKN040
     FM200800 18007KT 3SM -SN BR OVC020
     FM201600 20006KT P6SM VCSH SCT025 BKN040
     FM210100 27006KT P6SM SCT060=

USA.gov is the U.S. government's official web portal to all federal, state and local government web resources and services.